Temp: 17.3°C   Baro: 1015.4mb
  Wind: 12.1mph   Dir: W (281°)
  Rain: 9.6mm (0.0mm/hr)
  Solar: 714W/m2  Hum: 67%
 
Bath Spa Weather Historical Data
Daily Summary for February 11, 2019 Units:  Both    English   Metric
Next Day »
Daily Weekly Monthly Yearly Custom
  High: Low: Average:
Temperature: 49.5 °F /  9.7 °C 35.4 °F /  1.9 °C 42.4 °F /  5.8 °C
Dew Point: 41 °F /  5.0 °C 33.3 °F /  0.7 °C 37.6 °F /  3.1 °C
Humidity: 92% 69% 83%
Wind Speed: 18mph /  29.0km/h - 2mph /  3.2km/h
Wind Gust: 27mph /  43.4km/h - -
Wind direction- - West
Pressure: 30.5 in /  1032.4 hPa 29.8 in /  1010.0 hPa -
Precipitation: 0.01 in /  0.3 mm    
Historical Graphs
 
 
Tabular Data for February 11, 2019
Time Temperature Dew Point Pressure Wind direction Wind Speed Wind Gust Humidity Rainfall Rate (Hourly) solar
00:04 43.9 °F /  6.6 °C 39.9 °F /  4.4 °C 29.8in /  1010.0hPa West 13mph /  20.9km/h 21mph /  33.8km/h 86% 0.02in /  0.5mm 0.00 W/m2
00:09 44.1 °F /  6.7 °C 40.1 °F /  4.5 °C 29.8in /  1010.0hPa NW 8.9mph /  14.3km/h 27mph /  43.4km/h 86% 0.02in /  0.5mm 0.00 W/m2
00:14 44.1 °F /  6.7 °C 40.1 °F /  4.5 °C 29.8in /  1010.0hPa WNW 8.1mph /  13.0km/h 18mph /  29.0km/h 86% 0.02in /  0.5mm 0.00 W/m2
00:19 44.1 °F /  6.7 °C 40.1 °F /  4.5 °C 29.8in /  1010.4hPa West 10.1mph /  16.3km/h 17mph /  27.4km/h 86% 0.01in /  0.3mm 0.00 W/m2
00:24 44.1 °F /  6.7 °C 40.5 °F /  4.7 °C 29.8in /  1010.4hPa WNW 4mph /  6.4km/h 11mph /  17.7km/h 87% 0.01in /  0.3mm 0.00 W/m2
00:29 44.1 °F /  6.7 °C 40.1 °F /  4.5 °C 29.8in /  1010.7hPa WNW 14.1mph /  22.7km/h 18mph /  29.0km/h 86% 0in /  0.0mm 0.00 W/m2
00:34 44.1 °F /  6.7 °C 40.1 °F /  4.5 °C 29.8in /  1010.7hPa NW 6mph /  9.7km/h 18mph /  29.0km/h 86% 0in /  0.0mm 0.00 W/m2
00:39 44.1 °F /  6.7 °C 40.1 °F /  4.5 °C 29.8in /  1010.7hPa West 12.1mph /  19.5km/h 17mph /  27.4km/h 86% 0in /  0.0mm 0.00 W/m2
00:44 44.2 °F /  6.8 °C 40.3 °F /  4.6 °C 29.8in /  1010.7hPa WNW 18mph /  29.0km/h 18mph /  29.0km/h 86% 0in /  0.0mm 0.00 W/m2
00:49 44.1 °F /  6.7 °C 40.1 °F /  4.5 °C 29.8in /  1010.7hPa NW 11mph /  17.7km/h 14mph /  22.5km/h 86% 0in /  0.0mm 0.00 W/m2
00:54 44.1 °F /  6.7 °C 40.1 °F /  4.5 °C 29.9in /  1011.1hPa WNW 8.1mph /  13.0km/h 11mph /  17.7km/h 86% 0in /  0.0mm 0.00 W/m2
00:59 43.9 °F /  6.6 °C 40.3 °F /  4.6 °C 29.9in /  1011.1hPa WNW 6.9mph /  11.1km/h 13mph /  20.9km/h 87% 0in /  0.0mm 0.00 W/m2
01:04 43.7 °F /  6.5 °C 40.1 °F /  4.5 °C 29.9in /  1011.1hPa West 8.1mph /  13.0km/h 15mph /  24.1km/h 87% 0in /  0.0mm 0.00 W/m2
01:09 43.7 °F /  6.5 °C 40.1 °F /  4.5 °C 29.9in /  1011.1hPa WNW 10.1mph /  16.3km/h 14mph /  22.5km/h 87% 0in /  0.0mm 0.00 W/m2
01:14 43.9 °F /  6.6 °C 40.3 °F /  4.6 °C 29.9in /  1011.1hPa West 8.1mph /  13.0km/h 12mph /  19.3km/h 87% 0in /  0.0mm 0.00 W/m2
01:19 43.9 °F /  6.6 °C 39.9 °F /  4.4 °C 29.9in /  1011.4hPa WNW 6.9mph /  11.1km/h 11mph /  17.7km/h 86% 0in /  0.0mm 0.00 W/m2
01:24 43.9 °F /  6.6 °C 39.9 °F /  4.4 °C 29.9in /  1011.4hPa NW 8.9mph /  14.3km/h 14mph /  22.5km/h 86% 0in /  0.0mm 0.00 W/m2
01:29 43.7 °F /  6.5 °C 39.7 °F /  4.3 °C 29.9in /  1011.4hPa WNW 6mph /  9.7km/h 14mph /  22.5km/h 86% 0in /  0.0mm 0.00 W/m2
01:34 43.7 °F /  6.5 °C 39.7 °F /  4.3 °C 29.9in /  1011.7hPa WNW 6mph /  9.7km/h 7mph /  11.3km/h 86% 0in /  0.0mm 0.00 W/m2
01:39 43.5 °F /  6.4 °C 39.6 °F /  4.2 °C 29.9in /  1011.7hPa WNW 10.1mph /  16.3km/h 12mph /  19.3km/h 86% 0in /  0.0mm 0.00 W/m2
01:44 43.7 °F /  6.5 °C 39.7 °F /  4.3 °C 29.9in /  1012.1hPa WNW 4.9mph /  7.9km/h 8mph /  12.9km/h 86% 0in /  0.0mm 0.00 W/m2
01:49 43.5 °F /  6.4 °C 39.6 °F /  4.2 °C 29.9in /  1012.1hPa WNW 15mph /  24.1km/h 15mph /  24.1km/h 86% 0in /  0.0mm 0.00 W/m2
01:54 43.7 °F /  6.5 °C 39.7 °F /  4.3 °C 29.9in /  1012.1hPa NW 4.9mph /  7.9km/h 11mph /  17.7km/h 86% 0in /  0.0mm 0.00 W/m2
01:59 43.7 °F /  6.5 °C 39.7 °F /  4.3 °C 29.9in /  1012.4hPa NW 6.9mph /  11.1km/h 12mph /  19.3km/h 86% 0in /  0.0mm 0.00 W/m2
02:04 43.9 °F /  6.6 °C 39.9 °F /  4.4 °C 29.9in /  1012.4hPa West 8.9mph /  14.3km/h 14mph /  22.5km/h 86% 0in /  0.0mm 0.00 W/m2
02:09 43.9 °F /  6.6 °C 39.7 °F /  4.3 °C 29.9in /  1012.8hPa NW 6.9mph /  11.1km/h 10mph /  16.1km/h 85% 0in /  0.0mm 0.00 W/m2
02:14 44.1 °F /  6.7 °C 39.9 °F /  4.4 °C 29.9in /  1012.8hPa WNW 6.9mph /  11.1km/h 12mph /  19.3km/h 85% 0in /  0.0mm 0.00 W/m2
02:19 44.1 °F /  6.7 °C 39.6 °F /  4.2 °C 29.9in /  1013.1hPa WNW 14mph /  22.5km/h 14mph /  22.5km/h 84% 0in /  0.0mm 0.00 W/m2
02:24 44.2 °F /  6.8 °C 39.4 °F /  4.1 °C 29.9in /  1013.1hPa NW 6mph /  9.7km/h 10mph /  16.1km/h 83% 0in /  0.0mm 0.00 W/m2
02:29 44.2 °F /  6.8 °C 39 °F /  3.9 °C 29.9in /  1013.4hPa NW 6.9mph /  11.1km/h 16mph /  25.7km/h 82% 0.01in /  0.3mm 0.00 W/m2
02:34 44.2 °F /  6.8 °C 38.8 °F /  3.8 °C 29.9in /  1013.4hPa NW 8.9mph /  14.3km/h 12mph /  19.3km/h 81% 0.01in /  0.3mm 0.00 W/m2
02:39 44.2 °F /  6.8 °C 38.5 °F /  3.6 °C 29.9in /  1013.4hPa NW 2mph /  3.2km/h 13mph /  20.9km/h 80% 0.01in /  0.3mm 0.00 W/m2
02:44 44.2 °F /  6.8 °C 38.5 °F /  3.6 °C 29.9in /  1013.8hPa WNW 4.9mph /  7.9km/h 11mph /  17.7km/h 80% 0.01in /  0.3mm 0.00 W/m2
02:49 44.4 °F /  6.9 °C 38.7 °F /  3.7 °C 29.9in /  1013.8hPa NW 6.9mph /  11.1km/h 11mph /  17.7km/h 80% 0.01in /  0.3mm 0.00 W/m2
02:54 44.2 °F /  6.8 °C 38.5 °F /  3.6 °C 29.9in /  1014.1hPa NNW 6mph /  9.7km/h 12mph /  19.3km/h 80% 0.01in /  0.3mm 0.00 W/m2
02:59 44.2 °F /  6.8 °C 38.5 °F /  3.6 °C 29.9in /  1014.1hPa NW 4.9mph /  7.9km/h 14mph /  22.5km/h 80% 0.01in /  0.3mm 0.00 W/m2
03:04 44.2 °F /  6.8 °C 38.5 °F /  3.6 °C 30in /  1014.4hPa NNW 8.1mph /  13.0km/h 16mph /  25.7km/h 80% 0.01in /  0.3mm 0.00 W/m2
03:09 44.2 °F /  6.8 °C 38.1 °F /  3.4 °C 30in /  1014.4hPa NW 8.9mph /  14.3km/h 13mph /  20.9km/h 79% 0.01in /  0.3mm 0.00 W/m2
03:14 44.1 °F /  6.7 °C 37.9 °F /  3.3 °C 30in /  1014.8hPa NW 8.1mph /  13.0km/h 10mph /  16.1km/h 79% 0.01in /  0.3mm 0.00 W/m2
03:19 44.1 °F /  6.7 °C 38.3 °F /  3.5 °C 30in /  1014.8hPa NW 6mph /  9.7km/h 12mph /  19.3km/h 80% 0.01in /  0.3mm 0.00 W/m2
03:24 44.1 °F /  6.7 °C 38.3 °F /  3.5 °C 30in /  1014.8hPa WNW 0.9mph /  1.4km/h 9mph /  14.5km/h 80% 0.01in /  0.3mm 0.00 W/m2
03:29 44.1 °F /  6.7 °C 38.3 °F /  3.5 °C 30in /  1015.1hPa NW 2mph /  3.2km/h 9mph /  14.5km/h 80% 0in /  0.0mm 0.00 W/m2
03:34 43.9 °F /  6.6 °C 38.1 °F /  3.4 °C 30in /  1015.1hPa NNE 6mph /  9.7km/h 6mph /  9.7km/h 80% 0in /  0.0mm 0.00 W/m2
03:39 43.7 °F /  6.5 °C 37.9 °F /  3.3 °C 30in /  1015.1hPa NW 2.9mph /  4.7km/h 5mph /  8.0km/h 80% 0in /  0.0mm 0.00 W/m2
03:44 43.7 °F /  6.5 °C 38.3 °F /  3.5 °C 30in /  1015.5hPa NNE 11mph /  17.7km/h 11mph /  17.7km/h 81% 0in /  0.0mm 0.00 W/m2
03:49 43.5 °F /  6.4 °C 38.1 °F /  3.4 °C 30in /  1015.5hPa NW 2mph /  3.2km/h 9mph /  14.5km/h 81% 0in /  0.0mm 0.00 W/m2
03:54 43.3 °F /  6.3 °C 37.9 °F /  3.3 °C 30in /  1015.8hPa North 2.9mph /  4.7km/h 4mph /  6.4km/h 81% 0in /  0.0mm 0.00 W/m2
03:59 43.2 °F /  6.2 °C 37.8 °F /  3.2 °C 30in /  1015.8hPa North 0.9mph /  1.4km/h 6mph /  9.7km/h 81% 0in /  0.0mm 0.00 W/m2
04:04 43.2 °F /  6.2 °C 38.1 °F /  3.4 °C 30in /  1016.1hPa Calm   5mph /  8.0km/h 82% 0in /  0.0mm 0.00 W/m2
04:09 42.8 °F /  6.0 °C 37.8 °F /  3.2 °C 30in /  1016.1hPa NNE 6mph /  9.7km/h 7mph /  11.3km/h 82% 0in /  0.0mm 0.00 W/m2
04:14 42.6 °F /  5.9 °C 37.2 °F /  2.9 °C 30in /  1016.5hPa NNE 6mph /  9.7km/h 8mph /  12.9km/h 81% 0in /  0.0mm 0.00 W/m2
04:19 42.4 °F /  5.8 °C 37 °F /  2.8 °C 30in /  1016.5hPa NNW 4mph /  6.4km/h 4mph /  6.4km/h 81% 0in /  0.0mm 0.00 W/m2
04:24 42.4 °F /  5.8 °C 37 °F /  2.8 °C 30in /  1016.5hPa NNW 0.9mph /  1.4km/h 4mph /  6.4km/h 81% 0in /  0.0mm 0.00 W/m2
04:29 42.4 °F /  5.8 °C 37.4 °F /  3.0 °C 30in /  1016.5hPa Calm   1mph /  1.6km/h 82% 0in /  0.0mm 0.00 W/m2
04:34 42.3 °F /  5.7 °C 37.2 °F /  2.9 °C 30in /  1016.5hPa NNW 0.9mph /  1.4km/h 2mph /  3.2km/h 82% 0in /  0.0mm 0.00 W/m2
04:39 41.9 °F /  5.5 °C 36.9 °F /  2.7 °C 30in /  1016.8hPa NNW 0.9mph /  1.4km/h 1mph /  1.6km/h 82% 0in /  0.0mm 0.00 W/m2
04:44 41.7 °F /  5.4 °C 36.7 °F /  2.6 °C 30in /  1016.8hPa Calm   1mph /  1.6km/h 82% 0in /  0.0mm 0.00 W/m2
04:49 41.4 °F /  5.2 °C 36.3 °F /  2.4 °C 30in /  1017.2hPa NNW 2mph /  3.2km/h 2mph /  3.2km/h 82% 0in /  0.0mm 0.00 W/m2
04:54 41 °F /  5.0 °C 36.3 °F /  2.4 °C 30in /  1017.2hPa Calm   1mph /  1.6km/h 83% 0in /  0.0mm 0.00 W/m2
04:59 40.8 °F /  4.9 °C 36.1 °F /  2.3 °C 30in /  1017.2hPa Calm     83% 0in /  0.0mm 0.00 W/m2
05:04 40.5 °F /  4.7 °C 35.8 °F /  2.1 °C 30.1in /  1017.5hPa NNW 2mph /  3.2km/h 2mph /  3.2km/h 83% 0in /  0.0mm 0.00 W/m2
05:09 39.9 °F /  4.4 °C 35.4 °F /  1.9 °C 30.1in /  1017.5hPa Calm   2mph /  3.2km/h 84% 0in /  0.0mm 0.00 W/m2
05:14 39.6 °F /  4.2 °C 35.4 °F /  1.9 °C 30.1in /  1017.5hPa Calm   2mph /  3.2km/h 85% 0in /  0.0mm 0.00 W/m2
05:19 39.4 °F /  4.1 °C 35.2 °F /  1.8 °C 30.1in /  1017.8hPa Calm     85% 0in /  0.0mm 0.00 W/m2
05:24 39.2 °F /  4.0 °C 35.4 °F /  1.9 °C 30.1in /  1017.8hPa Calm     86% 0in /  0.0mm 0.00 W/m2
05:29 39 °F /  3.9 °C 35.2 °F /  1.8 °C 30.1in /  1018.2hPa NNW 1mph /  1.6km/h 1mph /  1.6km/h 86% 0in /  0.0mm 0.00 W/m2
05:34 39 °F /  3.9 °C 35.2 °F /  1.8 °C 30.1in /  1018.2hPa Calm     86% 0in /  0.0mm 0.00 W/m2
05:39 38.8 °F /  3.8 °C 35.1 °F /  1.7 °C 30.1in /  1018.2hPa Calm     86% 0in /  0.0mm 0.00 W/m2
05:44 38.3 °F /  3.5 °C 34.7 °F /  1.5 °C 30.1in /  1018.2hPa Calm     87% 0in /  0.0mm 0.00 W/m2
05:49 37.9 °F /  3.3 °C 34.3 °F /  1.3 °C 30.1in /  1018.2hPa Calm     87% 0in /  0.0mm 0.00 W/m2
05:54 37.9 °F /  3.3 °C 34.3 °F /  1.3 °C 30.1in /  1018.5hPa Calm     87% 0in /  0.0mm 0.00 W/m2
05:59 37.9 °F /  3.3 °C 34.7 °F /  1.5 °C 30.1in /  1018.5hPa Calm     88% 0in /  0.0mm 0.00 W/m2
06:04 37.8 °F /  3.2 °C 34.5 °F /  1.4 °C 30.1in /  1018.8hPa Calm     88% 0in /  0.0mm 0.00 W/m2
06:09 37.9 °F /  3.3 °C 35.1 °F /  1.7 °C 30.1in /  1018.8hPa Calm     89% 0in /  0.0mm 0.00 W/m2
06:14 37.8 °F /  3.2 °C 34.9 °F /  1.6 °C 30.1in /  1018.8hPa Calm     89% 0in /  0.0mm 0.00 W/m2
06:19 37.8 °F /  3.2 °C 34.9 °F /  1.6 °C 30.1in /  1019.2hPa Calm     89% 0in /  0.0mm 0.00 W/m2
06:24 37.4 °F /  3.0 °C 34.5 °F /  1.4 °C 30.1in /  1019.2hPa Calm     89% 0in /  0.0mm 0.00 W/m2
06:29 37.2 °F /  2.9 °C 34.3 °F /  1.3 °C 30.1in /  1019.2hPa Calm     89% 0in /  0.0mm 0.00 W/m2
06:34 37.2 °F /  2.9 °C 34.3 °F /  1.3 °C 30.1in /  1019.5hPa NNW 2mph /  3.2km/h 2mph /  3.2km/h 89% 0in /  0.0mm 0.00 W/m2
06:39 37.2 °F /  2.9 °C 34.5 °F /  1.4 °C 30.1in /  1019.5hPa NNW 2mph /  3.2km/h 4mph /  6.4km/h 90% 0in /  0.0mm 0.00 W/m2
06:44 37.2 °F /  2.9 °C 34.5 °F /  1.4 °C 30.1in /  1019.5hPa Calm     90% 0in /  0.0mm 0.00 W/m2
06:49 37 °F /  2.8 °C 34.3 °F /  1.3 °C 30.1in /  1019.9hPa NNW 0.9mph /  1.4km/h 2mph /  3.2km/h 90% 0in /  0.0mm 0.00 W/m2
06:54 36.9 °F /  2.7 °C 34.2 °F /  1.2 °C 30.1in /  1020.2hPa Calm   1mph /  1.6km/h 90% 0in /  0.0mm 0.00 W/m2
06:59 36.9 °F /  2.7 °C 34.2 °F /  1.2 °C 30.1in /  1020.2hPa Calm     90% 0in /  0.0mm 0.00 W/m2
07:04 36.7 °F /  2.6 °C 34 °F /  1.1 °C 30.1in /  1020.5hPa Calm   1mph /  1.6km/h 90% 0in /  0.0mm 0.00 W/m2
07:09 36.9 °F /  2.7 °C 34.5 °F /  1.4 °C 30.1in /  1020.5hPa Calm   2mph /  3.2km/h 91% 0in /  0.0mm 0.00 W/m2
07:14 36.7 °F /  2.6 °C 34.3 °F /  1.3 °C 30.1in /  1020.5hPa Calm   1mph /  1.6km/h 91% 0in /  0.0mm 0.00 W/m2
07:19 36.5 °F /  2.5 °C 34.2 °F /  1.2 °C 30.2in /  1020.9hPa Calm   1mph /  1.6km/h 91% 0in /  0.0mm 0.00 W/m2
07:24 36.5 °F /  2.5 °C 34.2 °F /  1.2 °C 30.2in /  1020.9hPa Calm     91% 0in /  0.0mm 0.00 W/m2
07:29 36.3 °F /  2.4 °C 34 °F /  1.1 °C 30.2in /  1020.9hPa Calm     91% 0in /  0.0mm 0.00 W/m2
07:34 36.3 °F /  2.4 °C 34 °F /  1.1 °C 30.2in /  1021.2hPa Calm     91% 0in /  0.0mm 5.00 W/m2
07:39 36.1 °F /  2.3 °C 33.8 °F /  1.0 °C 30.2in /  1021.2hPa Calm     91% 0in /  0.0mm 9.00 W/m2
07:44 36 °F /  2.2 °C 33.6 °F /  0.9 °C 30.2in /  1021.2hPa Calm     91% 0in /  0.0mm 12.00 W/m2
07:49 36 °F /  2.2 °C 33.6 °F /  0.9 °C 30.2in /  1021.6hPa Calm     91% 0in /  0.0mm 16.00 W/m2
07:54 35.8 °F /  2.1 °C 33.4 °F /  0.8 °C 30.2in /  1021.6hPa Calm     91% 0in /  0.0mm 19.00 W/m2
07:59 36 °F /  2.2 °C 33.6 °F /  0.9 °C 30.2in /  1021.6hPa Calm     91% 0in /  0.0mm 21.00 W/m2
08:04 36 °F /  2.2 °C 33.8 °F /  1.0 °C 30.2in /  1021.6hPa Calm     92% 0in /  0.0mm 25.00 W/m2
08:09 36.3 °F /  2.4 °C 34.2 °F /  1.2 °C 30.2in /  1021.9hPa Calm     92% 0in /  0.0mm 26.00 W/m2
08:14 36.5 °F /  2.5 °C 34.3 °F /  1.3 °C 30.2in /  1021.9hPa Calm     92% 0in /  0.0mm 28.00 W/m2
08:19 36.5 °F /  2.5 °C 34.3 °F /  1.3 °C 30.2in /  1022.2hPa Calm     92% 0in /  0.0mm 32.00 W/m2
08:24 36.9 °F /  2.7 °C 34.7 °F /  1.5 °C 30.2in /  1022.2hPa Calm     92% 0in /  0.0mm 33.00 W/m2
08:29 37.4 °F /  3.0 °C 35.2 °F /  1.8 °C 30.2in /  1022.6hPa Calm     92% 0in /  0.0mm 35.00 W/m2
08:34 37.8 °F /  3.2 °C 35.6 °F /  2.0 °C 30.2in /  1022.6hPa Calm     92% 0in /  0.0mm 35.00 W/m2
08:39 37.8 °F /  3.2 °C 35.6 °F /  2.0 °C 30.2in /  1022.9hPa Calm   1mph /  1.6km/h 92% 0in /  0.0mm 35.00 W/m2
08:44 38.7 °F /  3.7 °C 36.5 °F /  2.5 °C 30.2in /  1022.9hPa NNW 2mph /  3.2km/h 4mph /  6.4km/h 92% 0in /  0.0mm 37.00 W/m2
08:49 39 °F /  3.9 °C 36.7 °F /  2.6 °C 30.2in /  1023.2hPa NNW 2mph /  3.2km/h 3mph /  4.8km/h 91% 0in /  0.0mm 44.00 W/m2
08:54 39.6 °F /  4.2 °C 36.5 °F /  2.5 °C 30.2in /  1023.2hPa Calm   3mph /  4.8km/h 89% 0in /  0.0mm 47.00 W/m2
08:59 39.9 °F /  4.4 °C 36.7 °F /  2.6 °C 30.2in /  1023.2hPa Calm   2mph /  3.2km/h 88% 0in /  0.0mm 46.00 W/m2
09:04 40.3 °F /  4.6 °C 36.7 °F /  2.6 °C 30.2in /  1023.6hPa NNW 0.9mph /  1.4km/h 3mph /  4.8km/h 87% 0in /  0.0mm 53.00 W/m2
09:09 40.6 °F /  4.8 °C 36.9 °F /  2.7 °C 30.2in /  1023.6hPa Calm   1mph /  1.6km/h 86% 0in /  0.0mm 62.00 W/m2
09:14 41 °F /  5.0 °C 37.2 °F /  2.9 °C 30.2in /  1023.9hPa Calm   3mph /  4.8km/h 86% 0in /  0.0mm 74.00 W/m2
09:19 41.5 °F /  5.3 °C 37.4 °F /  3.0 °C 30.2in /  1023.9hPa NNW 2mph /  3.2km/h 2mph /  3.2km/h 85% 0in /  0.0mm 102.00 W/m2
09:24 41.7 °F /  5.4 °C 37.2 °F /  2.9 °C 30.3in /  1024.3hPa Calm   3mph /  4.8km/h 84% 0in /  0.0mm 107.00 W/m2
09:29 41.5 °F /  5.3 °C 37 °F /  2.8 °C 30.3in /  1024.3hPa NNW 4mph /  6.4km/h 4mph /  6.4km/h 84% 0in /  0.0mm 98.00 W/m2
09:34 41.7 °F /  5.4 °C 37.2 °F /  2.9 °C 30.3in /  1024.6hPa Calm   1mph /  1.6km/h 84% 0in /  0.0mm 90.00 W/m2
09:39 41.9 °F /  5.5 °C 37.8 °F /  3.2 °C 30.3in /  1024.6hPa Calm   1mph /  1.6km/h 85% 0in /  0.0mm 83.00 W/m2
09:44 41.9 °F /  5.5 °C 37.4 °F /  3.0 °C 30.3in /  1024.6hPa Calm   1mph /  1.6km/h 84% 0in /  0.0mm 79.00 W/m2
09:49 42.1 °F /  5.6 °C 37.6 °F /  3.1 °C 30.3in /  1024.9hPa Calm   3mph /  4.8km/h 84% 0in /  0.0mm 74.00 W/m2
09:54 42.3 °F /  5.7 °C 37.8 °F /  3.2 °C 30.3in /  1024.9hPa Calm     84% 0in /  0.0mm 69.00 W/m2
09:59 42.3 °F /  5.7 °C 37.8 °F /  3.2 °C 30.3in /  1024.9hPa Calm     84% 0in /  0.0mm 69.00 W/m2
10:04 42.3 °F /  5.7 °C 37.8 °F /  3.2 °C 30.3in /  1024.9hPa Calm     84% 0in /  0.0mm 91.00 W/m2
10:09 42.1 °F /  5.6 °C 37.6 °F /  3.1 °C 30.3in /  1024.9hPa Calm     84% 0in /  0.0mm 100.00 W/m2
10:14 42.3 °F /  5.7 °C 37.8 °F /  3.2 °C 30.3in /  1025.3hPa Calm   1mph /  1.6km/h 84% 0in /  0.0mm 90.00 W/m2
10:19 42.4 °F /  5.8 °C 37.9 °F /  3.3 °C 30.3in /  1025.3hPa NNW 3mph /  4.8km/h 3mph /  4.8km/h 84% 0in /  0.0mm 95.00 W/m2
10:24 42.4 °F /  5.8 °C 37.9 °F /  3.3 °C 30.3in /  1025.6hPa NNW 2.9mph /  4.7km/h 3mph /  4.8km/h 84% 0in /  0.0mm 113.00 W/m2
10:29 42.6 °F /  5.9 °C 38.1 °F /  3.4 °C 30.3in /  1025.6hPa Calm     84% 0in /  0.0mm 121.00 W/m2
10:34 42.8 °F /  6.0 °C 38.3 °F /  3.5 °C 30.3in /  1025.6hPa Calm     84% 0in /  0.0mm 118.00 W/m2
10:39 43.2 °F /  6.2 °C 38.7 °F /  3.7 °C 30.3in /  1025.6hPa NW 2mph /  3.2km/h 2mph /  3.2km/h 84% 0in /  0.0mm 130.00 W/m2
10:44 43.5 °F /  6.4 °C 39 °F /  3.9 °C 30.3in /  1025.6hPa NW 3mph /  4.8km/h 3mph /  4.8km/h 84% 0in /  0.0mm 341.00 W/m2
10:49 44.1 °F /  6.7 °C 39.2 °F /  4.0 °C 30.3in /  1025.6hPa Calm     83% 0in /  0.0mm 264.00 W/m2
10:54 44.8 °F /  7.1 °C 39.9 °F /  4.4 °C 30.3in /  1025.6hPa Calm   2mph /  3.2km/h 83% 0in /  0.0mm 255.00 W/m2
10:59 45.1 °F /  7.3 °C 39.7 °F /  4.3 °C 30.3in /  1025.6hPa Calm   4mph /  6.4km/h 81% 0in /  0.0mm 366.00 W/m2
11:04 45.5 °F /  7.5 °C 40.1 °F /  4.5 °C 30.3in /  1026.0hPa NW 2.9mph /  4.7km/h 4mph /  6.4km/h 81% 0in /  0.0mm 323.00 W/m2
11:09 45.9 °F /  7.7 °C 40.3 °F /  4.6 °C 30.3in /  1026.0hPa Calm   6mph /  9.7km/h 81% 0in /  0.0mm 193.00 W/m2
11:14 46 °F /  7.8 °C 40.3 °F /  4.6 °C 30.3in /  1026.3hPa WNW 6mph /  9.7km/h 6mph /  9.7km/h 80% 0in /  0.0mm 227.00 W/m2
11:19 45.9 °F /  7.7 °C 39.7 °F /  4.3 °C 30.3in /  1026.3hPa WNW 4.9mph /  7.9km/h 7mph /  11.3km/h 79% 0in /  0.0mm 246.00 W/m2
11:24 45.9 °F /  7.7 °C 39.7 °F /  4.3 °C 30.3in /  1026.6hPa WNW 2mph /  3.2km/h 5mph /  8.0km/h 79% 0in /  0.0mm 230.00 W/m2
11:29 45.9 °F /  7.7 °C 39.4 °F /  4.1 °C 30.3in /  1026.3hPa Calm   5mph /  8.0km/h 78% 0in /  0.0mm 211.00 W/m2
11:34 46.4 °F /  8.0 °C 39.6 °F /  4.2 °C 30.3in /  1026.3hPa WNW 2mph /  3.2km/h 6mph /  9.7km/h 77% 0in /  0.0mm 265.00 W/m2
11:39 46.8 °F /  8.2 °C 39.9 °F /  4.4 °C 30.3in /  1026.6hPa WNW 2mph /  3.2km/h 4mph /  6.4km/h 77% 0in /  0.0mm 246.00 W/m2
11:44 47.1 °F /  8.4 °C 39.6 °F /  4.2 °C 30.3in /  1026.3hPa West 4mph /  6.4km/h 5mph /  8.0km/h 75% 0in /  0.0mm 336.00 W/m2
11:49 47.7 °F /  8.7 °C 40.1 °F /  4.5 °C 30.3in /  1026.6hPa West 4.9mph /  7.9km/h 5mph /  8.0km/h 75% 0in /  0.0mm 480.00 W/m2
11:54 48.6 °F /  9.2 °C 41 °F /  5.0 °C 30.3in /  1026.6hPa Calm   3mph /  4.8km/h 75% 0in /  0.0mm 404.00 W/m2
11:59 48 °F /  8.9 °C 39.4 °F /  4.1 °C 30.3in /  1026.6hPa West 6.9mph /  11.1km/h 11mph /  17.7km/h 72% 0in /  0.0mm 255.00 W/m2
12:04 48 °F /  8.9 °C 40.1 °F /  4.5 °C 30.3in /  1026.6hPa NW 2.9mph /  4.7km/h 7mph /  11.3km/h 74% 0in /  0.0mm 258.00 W/m2
12:09 47.8 °F /  8.8 °C 39.6 °F /  4.2 °C 30.3in /  1026.6hPa West 2.9mph /  4.7km/h 6mph /  9.7km/h 73% 0in /  0.0mm 244.00 W/m2
12:14 48 °F /  8.9 °C 40.1 °F /  4.5 °C 30.3in /  1026.6hPa NW 9mph /  14.5km/h 9mph /  14.5km/h 74% 0in /  0.0mm 181.00 W/m2
12:19 48 °F /  8.9 °C 39.7 °F /  4.3 °C 30.3in /  1027.0hPa Calm   4mph /  6.4km/h 73% 0in /  0.0mm 197.00 W/m2
12:24 48 °F /  8.9 °C 39.7 °F /  4.3 °C 30.3in /  1027.0hPa NW 6.9mph /  11.1km/h 7mph /  11.3km/h 73% 0in /  0.0mm 229.00 W/m2
12:29 48.2 °F /  9.0 °C 39.6 °F /  4.2 °C 30.3in /  1027.0hPa West 0.9mph /  1.4km/h 6mph /  9.7km/h 72% 0in /  0.0mm 253.00 W/m2
12:34 48.2 °F /  9.0 °C 39.6 °F /  4.2 °C 30.3in /  1027.0hPa NW 2.9mph /  4.7km/h 10mph /  16.1km/h 72% 0in /  0.0mm 195.00 W/m2
12:39 48 °F /  8.9 °C 39 °F /  3.9 °C 30.3in /  1027.0hPa NNW 6mph /  9.7km/h 9mph /  14.5km/h 71% 0in /  0.0mm 190.00 W/m2
12:44 48 °F /  8.9 °C 39 °F /  3.9 °C 30.3in /  1027.0hPa NW 4.9mph /  7.9km/h 8mph /  12.9km/h 71% 0in /  0.0mm 218.00 W/m2
12:49 48 °F /  8.9 °C 39.4 °F /  4.1 °C 30.3in /  1027.0hPa NW 6mph /  9.7km/h 8mph /  12.9km/h 72% 0in /  0.0mm 193.00 W/m2
12:54 48 °F /  8.9 °C 39.4 °F /  4.1 °C 30.3in /  1027.0hPa NW 2mph /  3.2km/h 5mph /  8.0km/h 72% 0in /  0.0mm 190.00 W/m2
12:59 48.2 °F /  9.0 °C 39.6 °F /  4.2 °C 30.3in /  1027.0hPa WNW 4.9mph /  7.9km/h 6mph /  9.7km/h 72% 0in /  0.0mm 241.00 W/m2
13:04 48.4 °F /  9.1 °C 39.4 °F /  4.1 °C 30.3in /  1027.3hPa NW 6mph /  9.7km/h 9mph /  14.5km/h 71% 0in /  0.0mm 308.00 W/m2
13:09 48.2 °F /  9.0 °C 39.2 °F /  4.0 °C 30.3in /  1027.3hPa WNW 2mph /  3.2km/h 8mph /  12.9km/h 71% 0in /  0.0mm 227.00 W/m2
13:14 48.7 °F /  9.3 °C 39.7 °F /  4.3 °C 30.3in /  1027.3hPa NW 2mph /  3.2km/h 9mph /  14.5km/h 71% 0in /  0.0mm 204.00 W/m2
13:19 48.7 °F /  9.3 °C 39.7 °F /  4.3 °C 30.3in /  1027.3hPa NNW 2mph /  3.2km/h 8mph /  12.9km/h 71% 0in /  0.0mm 272.00 W/m2
13:24 49.5 °F /  9.7 °C 40.1 °F /  4.5 °C 30.3in /  1027.3hPa WNW 2mph /  3.2km/h 5mph /  8.0km/h 70% 0in /  0.0mm 469.00 W/m2
13:29 49.1 °F /  9.5 °C 39.7 °F /  4.3 °C 30.3in /  1027.3hPa WNW 2.9mph /  4.7km/h 9mph /  14.5km/h 70% 0in /  0.0mm 171.00 W/m2
13:34 48.9 °F /  9.4 °C 39.9 °F /  4.4 °C 30.3in /  1027.3hPa West 4.9mph /  7.9km/h 7mph /  11.3km/h 71% 0in /  0.0mm 163.00 W/m2
13:39 48.6 °F /  9.2 °C 39.6 °F /  4.2 °C 30.3in /  1027.3hPa West 2.9mph /  4.7km/h 8mph /  12.9km/h 71% 0in /  0.0mm 158.00 W/m2
13:44 48.7 °F /  9.3 °C 40.1 °F /  4.5 °C 30.3in /  1027.3hPa West 2mph /  3.2km/h 7mph /  11.3km/h 72% 0in /  0.0mm 134.00 W/m2
13:49 48.6 °F /  9.2 °C 39.9 °F /  4.4 °C 30.3in /  1027.3hPa Calm   4mph /  6.4km/h 72% 0in /  0.0mm 197.00 W/m2
13:54 48.7 °F /  9.3 °C 40.1 °F /  4.5 °C 30.4in /  1027.7hPa West 2.9mph /  4.7km/h 6mph /  9.7km/h 72% 0in /  0.0mm 236.00 W/m2
13:59 48.7 °F /  9.3 °C 40.1 °F /  4.5 °C 30.4in /  1027.7hPa NW 0.9mph /  1.4km/h 6mph /  9.7km/h 72% 0in /  0.0mm 190.00 W/m2
14:04 48.9 °F /  9.4 °C 40.3 °F /  4.6 °C 30.4in /  1027.7hPa West 4mph /  6.4km/h 5mph /  8.0km/h 72% 0in /  0.0mm 304.00 W/m2
14:09 49.1 °F /  9.5 °C 40.5 °F /  4.7 °C 30.4in /  1027.7hPa NW 4.9mph /  7.9km/h 6mph /  9.7km/h 72% 0in /  0.0mm 214.00 W/m2
14:14 49.1 °F /  9.5 °C 40.1 °F /  4.5 °C 30.4in /  1027.7hPa NW 2mph /  3.2km/h 4mph /  6.4km/h 71% 0in /  0.0mm 153.00 W/m2
14:19 49.1 °F /  9.5 °C 39.7 °F /  4.3 °C 30.4in /  1027.7hPa NNE 6mph /  9.7km/h 6mph /  9.7km/h 70% 0in /  0.0mm 139.00 W/m2
14:24 48.9 °F /  9.4 °C 39.6 °F /  4.2 °C 30.4in /  1027.7hPa North 0.9mph /  1.4km/h 6mph /  9.7km/h 70% 0in /  0.0mm 142.00 W/m2
14:29 49.1 °F /  9.5 °C 39.7 °F /  4.3 °C 30.4in /  1027.7hPa NNE 7mph /  11.3km/h 7mph /  11.3km/h 70% 0in /  0.0mm 95.00 W/m2
14:34 48.9 °F /  9.4 °C 39.2 °F /  4.0 °C 30.4in /  1028.0hPa North 2mph /  3.2km/h 6mph /  9.7km/h 69% 0in /  0.0mm 339.00 W/m2
14:39 49.1 °F /  9.5 °C 39.4 °F /  4.1 °C 30.4in /  1027.7hPa NNE 4mph /  6.4km/h 6mph /  9.7km/h 69% 0in /  0.0mm 81.00 W/m2
14:44 49.1 °F /  9.5 °C 39.7 °F /  4.3 °C 30.4in /  1027.7hPa NE 2.9mph /  4.7km/h 5mph /  8.0km/h 70% 0in /  0.0mm 72.00 W/m2
14:49 49.1 °F /  9.5 °C 39.7 °F /  4.3 °C 30.4in /  1028.0hPa NE 2mph /  3.2km/h 3mph /  4.8km/h 70% 0in /  0.0mm 60.00 W/m2
14:54 48.7 °F /  9.3 °C 39.4 °F /  4.1 °C 30.4in /  1028.0hPa Calm   2mph /  3.2km/h 70% 0in /  0.0mm 67.00 W/m2
14:59 48.7 °F /  9.3 °C 39.7 °F /  4.3 °C 30.4in /  1028.3hPa NE 0.9mph /  1.4km/h 2mph /  3.2km/h 71% 0in /  0.0mm 65.00 W/m2
15:04 48.7 °F /  9.3 °C 39.7 °F /  4.3 °C 30.4in /  1028.3hPa NE 0.9mph /  1.4km/h 1mph /  1.6km/h 71% 0in /  0.0mm 69.00 W/m2
15:09 48.6 °F /  9.2 °C 39.6 °F /  4.2 °C 30.4in /  1028.3hPa Calm   1mph /  1.6km/h 71% 0in /  0.0mm 81.00 W/m2
15:14 48.7 °F /  9.3 °C 39.7 °F /  4.3 °C 30.4in /  1028.3hPa NE 0.9mph /  1.4km/h 3mph /  4.8km/h 71% 0in /  0.0mm 84.00 W/m2
15:19 48.9 °F /  9.4 °C 39.9 °F /  4.4 °C 30.4in /  1028.3hPa Calm   2mph /  3.2km/h 71% 0in /  0.0mm 81.00 W/m2
15:24 48.9 °F /  9.4 °C 39.6 °F /  4.2 °C 30.4in /  1028.3hPa Calm   1mph /  1.6km/h 70% 0in /  0.0mm 60.00 W/m2
15:29 48.9 °F /  9.4 °C 39.9 °F /  4.4 °C 30.4in /  1028.7hPa Calm     71% 0in /  0.0mm 53.00 W/m2
15:34 48.9 °F /  9.4 °C 39.6 °F /  4.2 °C 30.4in /  1028.7hPa Calm     70% 0in /  0.0mm 44.00 W/m2
15:39 48.9 °F /  9.4 °C 39.6 °F /  4.2 °C 30.4in /  1028.7hPa Calm     70% 0in /  0.0mm 42.00 W/m2
15:44 48.9 °F /  9.4 °C 39.9 °F /  4.4 °C 30.4in /  1028.7hPa Calm     71% 0in /  0.0mm 44.00 W/m2
15:49 48.7 °F /  9.3 °C 40.1 °F /  4.5 °C 30.4in /  1029.0hPa Calm     72% 0in /  0.0mm 49.00 W/m2
15:54 48.6 °F /  9.2 °C 39.9 °F /  4.4 °C 30.4in /  1029.0hPa Calm     72% 0in /  0.0mm 49.00 W/m2
15:59 48.4 °F /  9.1 °C 40.1 °F /  4.5 °C 30.4in /  1029.0hPa Calm     73% 0in /  0.0mm 44.00 W/m2
16:04 48.2 °F /  9.0 °C 40.3 °F /  4.6 °C 30.4in /  1029.0hPa Calm     74% 0in /  0.0mm 47.00 W/m2
16:09 48.2 °F /  9.0 °C 40.3 °F /  4.6 °C 30.4in /  1029.0hPa Calm     74% 0in /  0.0mm 40.00 W/m2
16:14 48 °F /  8.9 °C 40.5 °F /  4.7 °C 30.4in /  1029.3hPa Calm     75% 0in /  0.0mm 30.00 W/m2
16:19 48 °F /  8.9 °C 40.5 °F /  4.7 °C 30.4in /  1029.3hPa Calm     75% 0in /  0.0mm 30.00 W/m2
16:24 47.7 °F /  8.7 °C 40.1 °F /  4.5 °C 30.4in /  1029.3hPa Calm     75% 0in /  0.0mm 28.00 W/m2
16:29 47.7 °F /  8.7 °C 40.5 °F /  4.7 °C 30.4in /  1029.3hPa Calm     76% 0in /  0.0mm 30.00 W/m2
16:34 47.3 °F /  8.5 °C 40.1 °F /  4.5 °C 30.4in /  1029.3hPa Calm     76% 0in /  0.0mm 25.00 W/m2
16:39 46.8 °F /  8.2 °C 39.6 °F /  4.2 °C 30.4in /  1029.3hPa Calm     76% 0in /  0.0mm 21.00 W/m2
16:44 46.4 °F /  8.0 °C 39.6 °F /  4.2 °C 30.4in /  1029.3hPa Calm     77% 0in /  0.0mm 19.00 W/m2
16:49 46.2 °F /  7.9 °C 39.4 °F /  4.1 °C 30.4in /  1029.3hPa Calm     77% 0in /  0.0mm 18.00 W/m2
16:54 46 °F /  7.8 °C 39.6 °F /  4.2 °C 30.4in /  1029.3hPa Calm     78% 0in /  0.0mm 16.00 W/m2
16:59 45.7 °F /  7.6 °C 39.2 °F /  4.0 °C 30.4in /  1029.3hPa Calm   1mph /  1.6km/h 78% 0in /  0.0mm 14.00 W/m2
17:04 45.5 °F /  7.5 °C 39.4 °F /  4.1 °C 30.4in /  1029.7hPa Calm   3mph /  4.8km/h 79% 0in /  0.0mm 11.00 W/m2
17:09 45.3 °F /  7.4 °C 39.2 °F /  4.0 °C 30.4in /  1029.7hPa NE 0.9mph /  1.4km/h 1mph /  1.6km/h 79% 0in /  0.0mm 7.00 W/m2
17:14 45.3 °F /  7.4 °C 39.6 °F /  4.2 °C 30.4in /  1029.7hPa NE 2mph /  3.2km/h 2mph /  3.2km/h 80% 0in /  0.0mm 0.00 W/m2
17:19 45.1 °F /  7.3 °C 39.4 °F /  4.1 °C 30.4in /  1029.7hPa NE 0.9mph /  1.4km/h 2mph /  3.2km/h 80% 0in /  0.0mm 0.00 W/m2
17:24 45.1 °F /  7.3 °C 39.4 °F /  4.1 °C 30.4in /  1030.0hPa Calm     80% 0in /  0.0mm 0.00 W/m2
17:29 45 °F /  7.2 °C 39.6 °F /  4.2 °C 30.4in /  1030.0hPa Calm     81% 0in /  0.0mm 0.00 W/m2
17:34 45 °F /  7.2 °C 39.6 °F /  4.2 °C 30.4in /  1030.0hPa Calm     81% 0in /  0.0mm 0.00 W/m2
17:39 44.6 °F /  7.0 °C 39.4 °F /  4.1 °C 30.4in /  1030.0hPa Calm     82% 0in /  0.0mm 0.00 W/m2
17:44 44.4 °F /  6.9 °C 39.2 °F /  4.0 °C 30.4in /  1030.0hPa Calm     82% 0in /  0.0mm 0.00 W/m2
17:49 44.2 °F /  6.8 °C 39.4 °F /  4.1 °C 30.4in /  1030.0hPa Calm     83% 0in /  0.0mm 0.00 W/m2
17:54 44.1 °F /  6.7 °C 39.2 °F /  4.0 °C 30.4in /  1030.4hPa Calm   2mph /  3.2km/h 83% 0in /  0.0mm 0.00 W/m2
17:59 44.1 °F /  6.7 °C 39.2 °F /  4.0 °C 30.4in /  1030.4hPa NE 0.9mph /  1.4km/h 1mph /  1.6km/h 83% 0in /  0.0mm 0.00 W/m2
18:04 44.2 °F /  6.8 °C 39.4 °F /  4.1 °C 30.4in /  1030.4hPa Calm   1mph /  1.6km/h 83% 0in /  0.0mm 0.00 W/m2
18:09 44.2 °F /  6.8 °C 39.4 °F /  4.1 °C 30.4in /  1030.4hPa Calm     83% 0in /  0.0mm 0.00 W/m2
18:14 44.2 °F /  6.8 °C 39.4 °F /  4.1 °C 30.4in /  1030.7hPa Calm     83% 0in /  0.0mm 0.00 W/m2
18:19 44.2 °F /  6.8 °C 39.4 °F /  4.1 °C 30.4in /  1030.7hPa Calm     83% 0in /  0.0mm 0.00 W/m2
18:24 44.1 °F /  6.7 °C 39.2 °F /  4.0 °C 30.4in /  1030.7hPa Calm     83% 0in /  0.0mm 0.00 W/m2
18:29 43.9 °F /  6.6 °C 39 °F /  3.9 °C 30.4in /  1030.7hPa Calm     83% 0in /  0.0mm 0.00 W/m2
18:34 43.5 °F /  6.4 °C 38.7 °F /  3.7 °C 30.4in /  1030.7hPa NNW 1mph /  1.6km/h 1mph /  1.6km/h 83% 0in /  0.0mm 0.00 W/m2
18:39 43.2 °F /  6.2 °C 38.7 °F /  3.7 °C 30.4in /  1031.0hPa Calm   1mph /  1.6km/h 84% 0in /  0.0mm 0.00 W/m2
18:44 43.2 °F /  6.2 °C 38.7 °F /  3.7 °C 30.4in /  1030.7hPa Calm     84% 0in /  0.0mm 0.00 W/m2
18:49 43.2 °F /  6.2 °C 38.7 °F /  3.7 °C 30.4in /  1030.7hPa Calm     84% 0in /  0.0mm 0.00 W/m2
18:54 43 °F /  6.1 °C 38.8 °F /  3.8 °C 30.4in /  1030.7hPa Calm     85% 0in /  0.0mm 0.00 W/m2
18:59 42.6 °F /  5.9 °C 38.5 °F /  3.6 °C 30.4in /  1031.0hPa Calm     85% 0in /  0.0mm 0.00 W/m2
19:04 42.6 °F /  5.9 °C 38.5 °F /  3.6 °C 30.4in /  1031.0hPa Calm   1mph /  1.6km/h 85% 0in /  0.0mm 0.00 W/m2
19:09 42.3 °F /  5.7 °C 38.1 °F /  3.4 °C 30.4in /  1031.0hPa Calm     85% 0in /  0.0mm 0.00 W/m2
19:14 42.3 °F /  5.7 °C 38.1 °F /  3.4 °C 30.4in /  1031.0hPa Calm     85% 0in /  0.0mm 0.00 W/m2
19:19 41.9 °F /  5.5 °C 37.8 °F /  3.2 °C 30.4in /  1031.0hPa Calm     85% 0in /  0.0mm 0.00 W/m2
19:24 41.9 °F /  5.5 °C 37.9 °F /  3.3 °C 30.4in /  1031.0hPa Calm     86% 0in /  0.0mm 0.00 W/m2
19:29 41.7 °F /  5.4 °C 37.8 °F /  3.2 °C 30.4in /  1031.0hPa Calm     86% 0in /  0.0mm 0.00 W/m2
19:34 41.5 °F /  5.3 °C 37.6 °F /  3.1 °C 30.4in /  1031.0hPa Calm   1mph /  1.6km/h 86% 0in /  0.0mm 0.00 W/m2
19:39 41.2 °F /  5.1 °C 37.4 °F /  3.0 °C 30.4in /  1031.0hPa Calm     86% 0in /  0.0mm 0.00 W/m2
19:44 40.8 °F /  4.9 °C 37 °F /  2.8 °C 30.4in /  1031.0hPa Calm   1mph /  1.6km/h 86% 0in /  0.0mm 0.00 W/m2
19:49 40.6 °F /  4.8 °C 37 °F /  2.8 °C 30.4in /  1031.0hPa Calm     87% 0in /  0.0mm 0.00 W/m2
19:54 40.6 °F /  4.8 °C 37 °F /  2.8 °C 30.4in /  1031.0hPa Calm   1mph /  1.6km/h 87% 0in /  0.0mm 0.00 W/m2
19:59 40.3 °F /  4.6 °C 36.7 °F /  2.6 °C 30.4in /  1031.0hPa NNW 0.9mph /  1.4km/h 1mph /  1.6km/h 87% 0in /  0.0mm 0.00 W/m2
20:04 40.1 °F /  4.5 °C 36.9 °F /  2.7 °C 30.4in /  1031.0hPa NNW 0.9mph /  1.4km/h 2mph /  3.2km/h 88% 0in /  0.0mm 0.00 W/m2
20:09 39.9 °F /  4.4 °C 36.7 °F /  2.6 °C 30.4in /  1031.0hPa Calm   1mph /  1.6km/h 88% 0in /  0.0mm 0.00 W/m2
20:14 39.7 °F /  4.3 °C 36.5 °F /  2.5 °C 30.5in /  1031.4hPa Calm     88% 0in /  0.0mm 0.00 W/m2
20:19 39.6 °F /  4.2 °C 36.3 °F /  2.4 °C 30.4in /  1031.0hPa NNW 2mph /  3.2km/h 2mph /  3.2km/h 88% 0in /  0.0mm 0.00 W/m2
20:24 39.4 °F /  4.1 °C 36.5 °F /  2.5 °C 30.5in /  1031.4hPa Calm   2mph /  3.2km/h 89% 0in /  0.0mm 0.00 W/m2
20:29 39 °F /  3.9 °C 36.1 °F /  2.3 °C 30.4in /  1031.0hPa Calm   1mph /  1.6km/h 89% 0in /  0.0mm 0.00 W/m2
20:34 39 °F /  3.9 °C 36.1 °F /  2.3 °C 30.5in /  1031.4hPa Calm     89% 0in /  0.0mm 0.00 W/m2
20:39 38.8 °F /  3.8 °C 36 °F /  2.2 °C 30.5in /  1031.4hPa Calm     89% 0in /  0.0mm 0.00 W/m2
20:44 38.8 °F /  3.8 °C 36 °F /  2.2 °C 30.5in /  1031.4hPa Calm     89% 0in /  0.0mm 0.00 W/m2
20:49 38.7 °F /  3.7 °C 35.8 °F /  2.1 °C 30.5in /  1031.4hPa Calm     89% 0in /  0.0mm 0.00 W/m2
20:54 38.5 °F /  3.6 °C 35.6 °F /  2.0 °C 30.5in /  1031.4hPa Calm   1mph /  1.6km/h 89% 0in /  0.0mm 0.00 W/m2
20:59 38.3 °F /  3.5 °C 35.4 °F /  1.9 °C 30.5in /  1031.4hPa Calm     89% 0in /  0.0mm 0.00 W/m2
21:04 37.9 °F /  3.3 °C 35.1 °F /  1.7 °C 30.5in /  1031.7hPa Calm     89% 0in /  0.0mm 0.00 W/m2
21:09 37.9 °F /  3.3 °C 35.2 °F /  1.8 °C 30.5in /  1031.4hPa Calm   1mph /  1.6km/h 90% 0in /  0.0mm 0.00 W/m2
21:14 37.8 °F /  3.2 °C 35.1 °F /  1.7 °C 30.5in /  1031.7hPa Calm     90% 0in /  0.0mm 0.00 W/m2
21:19 37.6 °F /  3.1 °C 34.9 °F /  1.6 °C 30.5in /  1031.7hPa Calm     90% 0in /  0.0mm 0.00 W/m2
21:24 37.6 °F /  3.1 °C 34.9 °F /  1.6 °C 30.5in /  1031.7hPa Calm     90% 0in /  0.0mm 0.00 W/m2
21:29 37.6 °F /  3.1 °C 34.9 °F /  1.6 °C 30.5in /  1031.7hPa Calm   1mph /  1.6km/h 90% 0in /  0.0mm 0.00 W/m2
21:34 37.2 °F /  2.9 °C 34.5 °F /  1.4 °C 30.5in /  1031.7hPa Calm     90% 0in /  0.0mm 0.00 W/m2
21:39 37.2 °F /  2.9 °C 34.5 °F /  1.4 °C 30.5in /  1031.7hPa Calm     90% 0in /  0.0mm 0.00 W/m2
21:44 37.2 °F /  2.9 °C 34.9 °F /  1.6 °C 30.5in /  1031.7hPa Calm     91% 0in /  0.0mm 0.00 W/m2
21:49 37.2 °F /  2.9 °C 34.9 °F /  1.6 °C 30.5in /  1031.7hPa Calm     91% 0in /  0.0mm 0.00 W/m2
21:54 37 °F /  2.8 °C 34.7 °F /  1.5 °C 30.5in /  1031.7hPa Calm     91% 0in /  0.0mm 0.00 W/m2
21:59 37 °F /  2.8 °C 34.7 °F /  1.5 °C 30.5in /  1031.7hPa Calm     91% 0in /  0.0mm 0.00 W/m2
22:04 37 °F /  2.8 °C 34.7 °F /  1.5 °C 30.5in /  1031.7hPa Calm     91% 0in /  0.0mm 0.00 W/m2
22:09 36.9 °F /  2.7 °C 34.5 °F /  1.4 °C 30.5in /  1031.7hPa Calm     91% 0in /  0.0mm 0.00 W/m2
22:14 36.7 °F /  2.6 °C 34.3 °F /  1.3 °C 30.5in /  1031.7hPa Calm     91% 0in /  0.0mm 0.00 W/m2
22:19 36.5 °F /  2.5 °C 34.2 °F /  1.2 °C 30.5in /  1031.7hPa Calm     91% 0in /  0.0mm 0.00 W/m2
22:24 36.1 °F /  2.3 °C 33.8 °F /  1.0 °C 30.5in /  1031.7hPa NNW 1mph /  1.6km/h 1mph /  1.6km/h 91% 0in /  0.0mm 0.00 W/m2
22:29 36.3 °F /  2.4 °C 34 °F /  1.1 °C 30.5in /  1031.7hPa Calm     91% 0in /  0.0mm 0.00 W/m2
22:34 36.3 °F /  2.4 °C 34.2 °F /  1.2 °C 30.5in /  1032.1hPa Calm     92% 0in /  0.0mm 0.00 W/m2
22:39 36.3 °F /  2.4 °C 34.2 °F /  1.2 °C 30.5in /  1032.1hPa Calm     92% 0in /  0.0mm 0.00 W/m2
22:39 36.3 °F /  2.4 °C 34.2 °F /  1.2 °C 30.5in /  1032.1hPa Calm     92% 0in /  0.0mm 0.00 W/m2
22:45 36.1 °F /  2.3 °C 34 °F /  1.1 °C 30.5in /  1032.1hPa Calm     92% 0in /  0.0mm 0.00 W/m2
22:46 36.1 °F /  2.3 °C 34 °F /  1.1 °C 30.5in /  1032.1hPa Calm     92% 0in /  0.0mm 0.00 W/m2
22:58 35.8 °F /  2.1 °C 33.6 °F /  0.9 °C 30.5in /  1032.1hPa Calm     92% 0in /  0.0mm 0.00 W/m2
23:04 35.8 °F /  2.1 °C 33.6 °F /  0.9 °C 30.5in /  1032.1hPa Calm     92% 0in /  0.0mm 0.00 W/m2
23:09 35.6 °F /  2.0 °C 33.4 °F /  0.8 °C 30.5in /  1032.1hPa NNW 1mph /  1.6km/h 1mph /  1.6km/h 92% 0in /  0.0mm 0.00 W/m2
23:14 35.6 °F /  2.0 °C 33.4 °F /  0.8 °C 30.5in /  1032.1hPa Calm     92% 0in /  0.0mm 0.00 W/m2
23:19 35.8 °F /  2.1 °C 33.6 °F /  0.9 °C 30.5in /  1032.4hPa Calm     92% 0in /  0.0mm 0.00 W/m2
23:24 35.6 °F /  2.0 °C 33.4 °F /  0.8 °C 30.5in /  1032.4hPa Calm     92% 0in /  0.0mm 0.00 W/m2
23:29 35.4 °F /  1.9 °C 33.3 °F /  0.7 °C 30.5in /  1032.4hPa Calm     92% 0in /  0.0mm 0.00 W/m2
23:34 35.6 °F /  2.0 °C 33.4 °F /  0.8 °C 30.5in /  1032.4hPa Calm     92% 0in /  0.0mm 0.00 W/m2
23:39 35.6 °F /  2.0 °C 33.4 °F /  0.8 °C 30.5in /  1032.4hPa Calm     92% 0in /  0.0mm 0.00 W/m2
23:44 35.6 °F /  2.0 °C 33.4 °F /  0.8 °C 30.5in /  1032.4hPa Calm     92% 0in /  0.0mm 0.00 W/m2
23:49 35.6 °F /  2.0 °C 33.4 °F /  0.8 °C 30.5in /  1032.4hPa Calm     92% 0in /  0.0mm 0.00 W/m2
23:54 35.4 °F /  1.9 °C 33.3 °F /  0.7 °C 30.5in /  1032.4hPa Calm     92% 0in /  0.0mm 0.00 W/m2
23:59 35.4 °F /  1.9 °C 33.3 °F /  0.7 °C 30.5in /  1032.4hPa Calm     92% 0in /  0.0mm 0.00 W/m2